Woodstock, Alabama
Current Conditions -  °F | °C
As of 2:53 PM on Friday 19 Dec 2014 (Local Time) from KEET Reporting Station
Broken Clouds Broken Clouds  
Wind Chill: 50°   Ceiling: 11000
Heat Index: 50°   Visibility: 10mi
Dew Point: 36°   Wind: 5mph
Humidity: 59%   Direction: 340°NNW
Pressure: 30.13"   Gusts: NA
Location:  33.21°N, 87.15°W
Report Text: KEET 192053Z AUTO 34004KT 10SM BKN110 10/02 A3013 RMK AO2 SLP203 T01000022 56023
Loading
Personal Weather Stations






























Interactive Weather Map New forecast layout! Learn more

10-Day Weather Forecast

Advertisements
Track Severe Weather on mobile